Accueil
METAR-TAF:

METAR-TAF

Aéroports :

Aéroport George F. L. Charles de Sainte-Lucie

Castries, Sainte-Lucie

latitude: 14-01N, longitude: 061-00W, altitude: 2 m

Observation

Le bulletin a été fait il y a 10 heures et 24 minutes, à 22:00 UTC
Vent 7 kt de est/sud-est
Température 28°C
Humidité 70%
Pression 1013 hPa
Visibilité 10 km ou plus
Quelques nuages à une hauteur de 2500 ft

METAR: TLPC 082200Z 11007KT 9999 FEW025 28/22 Q1013 NOSIG

Heure: 04:24 (08:24 UTC)

Prévision

Le bulletin a été fait il y a 3 heures et 24 minutes, à 05:00 UTC
Prévision valable du 09 à 06 UTC au 10 à 06 UTC
Vent 10 kt de est
Visibilité 10 km ou plus
Nuages épars à une hauteur de 2500 ft

TAF: TLPC 090500Z 0906/1006 10010KT 9999 SCT025

Observations et prévisions météorologiques de plus de 4000 aéroports (messages METAR et TAF).

Les stations disponibles sont représentées par des disques jaunes et rouges sur la carte.

Passer la souris dessus pour voir le nom de la station.

Cliquer dessus pour voir les observations et prévisions météorologiques.

Pour changer de carte: cliquez sur les boutons verts avec une croix noire pour zoomer, sur le bouton vert avec un tiret pour effectuer un zoom arrière, ou sur les flèches vertes pour les cartes adjacentes.


METAR-TAF: